createdAt,value
2022-07-27T00:01:09.800Z,3.97
2022-07-27T00:03:38.393Z,3.78
2022-07-27T00:06:06.580Z,3.42
2022-07-27T00:08:34.762Z,3.58
2022-07-27T00:11:03.314Z,3.28
2022-07-27T00:13:31.663Z,4.20
2022-07-27T00:15:59.498Z,4.28
2022-07-27T00:18:28.972Z,3.50
2022-07-27T00:20:56.872Z,3.60
2022-07-27T00:23:24.692Z,3.70
2022-07-27T00:25:52.707Z,3.67
2022-07-27T00:28:20.536Z,3.58
2022-07-27T00:30:48.305Z,3.92
2022-07-27T00:33:17.318Z,3.70
2022-07-27T00:35:46.967Z,3.90
2022-07-27T00:38:16.509Z,3.85
2022-07-27T00:40:45.124Z,4.07
2022-07-27T00:43:13.654Z,3.83
2022-07-27T00:45:41.684Z,3.95
2022-07-27T00:48:09.517Z,3.25
2022-07-27T00:50:38.638Z,3.47
2022-07-27T00:53:09.334Z,3.90
2022-07-27T00:55:39.380Z,3.75
2022-07-27T00:58:08.699Z,3.70
2022-07-27T01:00:37.096Z,3.95
2022-07-27T01:03:08.800Z,4.50
2022-07-27T01:05:43.130Z,5.00
2022-07-27T01:08:15.005Z,3.45
2022-07-27T01:10:44.475Z,3.55
2022-07-27T01:13:13.478Z,3.92
2022-07-27T01:15:43.311Z,3.80
2022-07-27T01:18:26.476Z,3.50
2022-07-27T01:20:54.379Z,3.72
2022-07-27T01:23:23.593Z,3.67
2022-07-27T01:25:51.787Z,3.10
2022-07-27T01:28:19.654Z,3.80
2022-07-27T01:30:47.669Z,3.47
2022-07-27T01:33:15.466Z,3.17
2022-07-27T01:35:43.379Z,3.72
2022-07-27T01:38:12.894Z,3.97
2022-07-27T01:40:42.185Z,3.75
2022-07-27T01:43:10.035Z,3.50
2022-07-27T01:45:37.902Z,3.70
2022-07-27T01:48:06.138Z,3.90
2022-07-27T01:50:33.977Z,3.67
2022-07-27T01:53:02.023Z,3.72
2022-07-27T01:55:38.751Z,4.38
2022-07-27T01:58:09.472Z,4.05
2022-07-27T02:00:38.101Z,4.30
2022-07-27T02:03:07.755Z,3.75
2022-07-27T02:05:36.058Z,3.67
2022-07-27T02:08:04.658Z,4.30
2022-07-27T02:10:33.026Z,3.55
2022-07-27T02:12:59.825Z,4.00
2022-07-27T02:15:38.838Z,4.05
2022-07-27T02:18:32.832Z,3.47
2022-07-27T02:20:59.352Z,3.75
2022-07-27T02:23:27.354Z,3.53
2022-07-27T02:25:55.194Z,3.40
2022-07-27T02:28:29.052Z,3.88
2022-07-27T02:30:58.202Z,3.67
2022-07-27T02:33:26.026Z,4.28
2022-07-27T02:35:53.903Z,3.78
2022-07-27T02:38:21.740Z,2.72
2022-07-27T02:40:49.558Z,4.07
2022-07-27T02:43:17.310Z,3.30
2022-07-27T02:45:46.455Z,3.45
2022-07-27T02:48:16.223Z,3.90
2022-07-27T02:50:44.084Z,3.50
2022-07-27T02:53:11.918Z,3.30
2022-07-27T02:55:40.120Z,3.38
2022-07-27T02:58:08.208Z,3.45
2022-07-27T03:00:35.990Z,3.10
2022-07-27T03:03:03.923Z,3.40
2022-07-27T03:05:33.655Z,2.88
2022-07-27T03:08:01.646Z,4.00
2022-07-27T03:10:29.400Z,3.15
2022-07-27T03:12:57.188Z,2.90
2022-07-27T03:15:25.182Z,3.50
2022-07-27T03:17:54.035Z,3.17
2022-07-27T03:20:21.980Z,3.17
2022-07-27T03:22:51.090Z,3.33
2022-07-27T03:25:18.950Z,3.33
2022-07-27T03:27:46.767Z,3.17
2022-07-27T03:30:15.005Z,3.15
2022-07-27T03:32:42.794Z,3.10
2022-07-27T03:35:10.989Z,3.22
2022-07-27T03:37:38.834Z,2.92
2022-07-27T03:40:09.784Z,3.40
2022-07-27T03:42:37.944Z,3.38
2022-07-27T03:45:06.979Z,3.35
2022-07-27T03:47:34.775Z,3.20
2022-07-27T03:50:02.781Z,2.70
2022-07-27T03:52:30.690Z,2.78
2022-07-27T03:54:58.515Z,3.33
2022-07-27T03:57:27.604Z,3.13
2022-07-27T03:59:55.417Z,3.20
2022-07-27T04:02:23.292Z,3.75
2022-07-27T04:04:51.384Z,3.35
2022-07-27T04:07:19.145Z,3.53
2022-07-27T04:09:47.244Z,3.47
2022-07-27T04:12:17.296Z,3.45
2022-07-27T04:14:49.140Z,3.30
2022-07-27T04:17:56.433Z,3.65
2022-07-27T04:20:05.900Z,3.03
2022-07-27T04:22:33.732Z,3.20
2022-07-27T04:25:01.768Z,3.30
2022-07-27T04:27:29.575Z,3.17
2022-07-27T04:29:58.762Z,3.00
2022-07-27T04:32:26.533Z,3.38
2022-07-27T04:34:54.337Z,3.22
2022-07-27T04:37:22.119Z,2.63
2022-07-27T04:39:49.941Z,2.58
2022-07-27T04:42:18.300Z,3.20
2022-07-27T04:44:46.110Z,2.50
2022-07-27T04:47:15.288Z,2.33
2022-07-27T04:49:43.049Z,3.78
2022-07-27T04:52:10.846Z,2.80
2022-07-27T04:54:38.600Z,3.00
2022-07-27T04:57:06.678Z,2.60
2022-07-27T04:59:34.467Z,2.90
2022-07-27T05:02:02.255Z,2.92
2022-07-27T05:04:31.544Z,2.63
2022-07-27T05:06:59.462Z,2.10
2022-07-27T05:09:27.337Z,2.78
2022-07-27T05:11:55.126Z,2.90
2022-07-27T05:14:23.405Z,3.17
2022-07-27T05:16:51.698Z,3.00
2022-07-27T05:19:19.539Z,2.70
2022-07-27T05:21:48.681Z,2.83
2022-07-27T05:24:16.427Z,3.17
2022-07-27T05:26:45.830Z,3.13
2022-07-27T05:29:14.217Z,3.15
2022-07-27T05:31:42.398Z,2.50
2022-07-27T05:34:10.275Z,3.33
2022-07-27T05:36:38.098Z,3.25
2022-07-27T05:39:10.423Z,2.90
2022-07-27T05:41:41.466Z,2.78
2022-07-27T05:44:09.383Z,3.00
2022-07-27T05:46:37.186Z,2.92
2022-07-27T05:49:06.150Z,2.80
2022-07-27T05:51:33.982Z,3.15
2022-07-27T05:54:01.936Z,2.85
2022-07-27T05:56:31.426Z,2.90
2022-07-27T05:59:01.619Z,2.80
2022-07-27T06:01:32.920Z,2.90
2022-07-27T06:04:01.063Z,2.85
2022-07-27T06:06:46.752Z,3.20
2022-07-27T06:09:15.197Z,3.10
2022-07-27T06:11:44.727Z,2.85
2022-07-27T06:14:12.595Z,2.85
2022-07-27T06:16:40.531Z,2.30
2022-07-27T06:19:08.643Z,2.83
2022-07-27T06:21:36.712Z,2.53
2022-07-27T06:24:05.169Z,3.00
2022-07-27T06:26:32.945Z,2.90
2022-07-27T06:29:02.106Z,2.97
2022-07-27T06:31:35.548Z,2.75
2022-07-27T06:34:03.915Z,3.03
2022-07-27T06:36:36.052Z,2.50
2022-07-27T06:39:03.906Z,2.50
2022-07-27T06:41:34.138Z,3.05
2022-07-27T06:44:03.369Z,2.63
2022-07-27T06:46:31.228Z,2.85
2022-07-27T06:48:59.106Z,2.63
2022-07-27T06:51:26.941Z,2.50
2022-07-27T06:53:54.876Z,2.33
2022-07-27T06:56:23.028Z,2.10
2022-07-27T06:58:51.556Z,2.22
2022-07-27T07:01:20.743Z,2.53
2022-07-27T07:03:48.631Z,2.40
2022-07-27T07:06:16.618Z,3.28
2022-07-27T07:08:44.488Z,2.40
2022-07-27T07:11:14.019Z,2.40
2022-07-27T07:13:44.955Z,2.22
2022-07-27T07:16:13.258Z,2.30
2022-07-27T07:18:42.446Z,2.00
2022-07-27T07:21:10.257Z,2.15
2022-07-27T07:23:38.110Z,1.88
2022-07-27T07:26:06.245Z,2.10
2022-07-27T07:28:34.160Z,1.98
2022-07-27T07:31:02.032Z,2.38
2022-07-27T07:33:29.888Z,1.83
2022-07-27T07:36:13.854Z,2.03
2022-07-27T07:38:43.086Z,1.92
2022-07-27T07:41:10.954Z,2.03
2022-07-27T07:43:39.768Z,1.70
2022-07-27T07:46:09.553Z,2.20
2022-07-27T07:48:39.485Z,1.63
2022-07-27T07:51:09.102Z,1.73
2022-07-27T07:53:41.447Z,1.50
2022-07-27T07:56:09.731Z,1.48
2022-07-27T07:58:37.630Z,1.45
2022-07-27T08:01:05.569Z,1.60
2022-07-27T08:03:33.487Z,1.77
2022-07-27T08:06:02.698Z,1.50
2022-07-27T08:08:33.056Z,1.30
2022-07-27T08:11:00.959Z,1.42
2022-07-27T08:13:28.767Z,1.95
2022-07-27T08:15:56.836Z,1.30
2022-07-27T08:18:24.623Z,1.90
2022-07-27T08:20:52.405Z,1.50
2022-07-27T08:23:20.380Z,1.48
2022-07-27T08:25:49.636Z,1.48
2022-07-27T08:28:17.506Z,1.40
2022-07-27T08:30:46.610Z,1.50
2022-07-27T08:33:14.412Z,1.30
2022-07-27T08:35:42.567Z,1.83
2022-07-27T08:38:10.777Z,2.20
2022-07-27T08:40:42.949Z,1.63
2022-07-27T08:43:21.897Z,1.80
2022-07-27T08:45:57.237Z,1.67
2022-07-27T08:48:25.719Z,2.10
2022-07-27T08:50:54.079Z,1.60
2022-07-27T08:53:22.766Z,2.15
2022-07-27T08:55:51.088Z,1.70
2022-07-27T08:58:20.649Z,2.00
2022-07-27T09:00:50.017Z,1.50
2022-07-27T09:03:21.095Z,1.58
2022-07-27T09:05:52.192Z,1.30
2022-07-27T09:08:24.145Z,1.67
2022-07-27T09:10:54.443Z,1.25
2022-07-27T09:13:26.072Z,1.38
2022-07-27T09:16:16.956Z,1.35
2022-07-27T09:18:43.824Z,1.20
2022-07-27T09:21:16.948Z,1.20
2022-07-27T09:23:48.010Z,1.40
2022-07-27T09:26:31.685Z,0.85
2022-07-27T09:29:03.719Z,1.25
2022-07-27T09:31:32.483Z,1.30
2022-07-27T09:34:01.837Z,1.50
2022-07-27T09:36:31.406Z,1.70
2022-07-27T09:39:03.147Z,1.23
2022-07-27T09:41:43.023Z,1.00
2022-07-27T09:44:31.297Z,1.27
2022-07-27T09:47:00.150Z,1.00
2022-07-27T09:49:32.814Z,1.00
2022-07-27T09:52:02.838Z,0.98
2022-07-27T09:54:44.165Z,0.90
2022-07-27T09:57:12.198Z,1.00
2022-07-27T09:59:41.509Z,1.10
2022-07-27T10:02:09.451Z,1.17
2022-07-27T10:04:37.605Z,0.75
2022-07-27T10:07:09.488Z,0.70
2022-07-27T10:09:41.540Z,1.00
2022-07-27T10:12:10.169Z,0.90
2022-07-27T10:14:37.919Z,0.90
2022-07-27T10:17:10.689Z,1.65
2022-07-27T10:19:46.725Z,0.85
2022-07-27T10:22:14.814Z,0.80
2022-07-27T10:24:42.838Z,0.80
2022-07-27T10:27:21.525Z,0.82
2022-07-27T10:29:50.970Z,0.80
2022-07-27T10:32:26.440Z,0.90
2022-07-27T10:34:54.790Z,0.93
2022-07-27T10:37:26.933Z,0.90
2022-07-27T10:40:11.395Z,0.90
2022-07-27T10:42:39.651Z,0.73
2022-07-27T10:45:09.607Z,0.90
2022-07-27T10:47:42.044Z,1.08
2022-07-27T10:50:33.122Z,0.90
2022-07-27T10:53:11.211Z,0.70
2022-07-27T10:55:46.824Z,0.90
2022-07-27T10:58:52.297Z,0.90
2022-07-27T11:01:21.678Z,0.93
2022-07-27T11:03:54.381Z,0.88
2022-07-27T11:06:41.958Z,0.80
2022-07-27T11:12:02.011Z,0.80
2022-07-27T11:14:31.854Z,0.60
2022-07-27T11:17:24.320Z,0.68
2022-07-27T11:19:54.555Z,0.90
2022-07-27T11:25:21.692Z,0.87
2022-07-27T11:27:50.225Z,0.80
2022-07-27T11:30:27.184Z,0.80
2022-07-27T11:32:56.670Z,1.10
2022-07-27T11:35:25.896Z,1.20
2022-07-27T11:38:01.848Z,1.10
2022-07-27T11:43:34.691Z,1.00
2022-07-27T11:46:15.787Z,0.90
2022-07-27T11:49:06.742Z,0.75
2022-07-27T11:51:37.811Z,0.85
2022-07-27T11:54:08.361Z,1.00
2022-07-27T11:56:37.897Z,0.90
2022-07-27T11:59:11.575Z,1.17
2022-07-27T12:01:42.272Z,0.88
2022-07-27T12:04:19.485Z,1.30
2022-07-27T12:06:55.834Z,1.00
2022-07-27T12:09:24.672Z,0.90
2022-07-27T12:11:55.378Z,0.80
2022-07-27T12:14:34.536Z,0.95
2022-07-27T12:17:14.149Z,1.00
2022-07-27T12:19:42.880Z,1.05
2022-07-27T12:22:12.023Z,0.90
2022-07-27T12:24:42.398Z,0.90
2022-07-27T12:27:14.810Z,1.10
2022-07-27T12:30:00.456Z,1.30
2022-07-27T12:32:29.766Z,1.00
2022-07-27T12:34:57.682Z,1.10
2022-07-27T12:37:32.563Z,0.95
2022-07-27T12:40:01.299Z,1.35
2022-07-27T12:42:37.491Z,0.82
2022-07-27T12:45:18.238Z,1.10
2022-07-27T12:47:46.917Z,1.20
2022-07-27T12:50:17.042Z,0.85
2022-07-27T12:55:17.700Z,1.30
2022-07-27T12:57:55.676Z,1.33
2022-07-27T13:00:33.511Z,1.20
2022-07-27T13:03:03.456Z,1.15
2022-07-27T13:05:31.578Z,1.25
2022-07-27T13:08:01.465Z,1.35
2022-07-27T13:10:29.601Z,1.20
2022-07-27T13:12:58.216Z,1.27
2022-07-27T13:15:26.308Z,1.50
2022-07-27T13:17:54.339Z,1.27
2022-07-27T13:20:22.171Z,1.15
2022-07-27T13:22:49.986Z,0.90
2022-07-27T13:25:19.620Z,1.50
2022-07-27T13:27:49.459Z,1.50
2022-07-27T13:30:19.008Z,1.02
2022-07-27T13:32:47.982Z,1.00
2022-07-27T13:35:17.570Z,0.93
2022-07-27T13:37:46.292Z,1.00
2022-07-27T13:40:15.193Z,0.80
2022-07-27T13:42:44.648Z,0.90
2022-07-27T13:45:12.587Z,1.05
2022-07-27T13:47:41.348Z,0.88
2022-07-27T13:50:17.914Z,1.10
2022-07-27T13:52:46.912Z,1.02
2022-07-27T13:55:15.855Z,1.15
2022-07-27T13:57:45.725Z,1.00
2022-07-27T14:00:14.737Z,1.00
2022-07-27T14:02:43.094Z,0.80
2022-07-27T14:05:13.123Z,1.17
2022-07-27T14:07:43.138Z,1.38
2022-07-27T14:10:30.268Z,0.93
2022-07-27T14:13:07.933Z,0.60
2022-07-27T14:15:50.420Z,1.25
2022-07-27T14:18:29.219Z,1.20
2022-07-27T14:20:59.076Z,1.00
2022-07-27T14:23:28.083Z,0.90
2022-07-27T14:25:58.359Z,1.20
2022-07-27T14:28:29.123Z,1.20
2022-07-27T14:30:57.095Z,1.10
2022-07-27T14:33:26.285Z,1.10
2022-07-27T14:36:02.022Z,0.95
2022-07-27T14:38:30.890Z,0.98
2022-07-27T14:41:00.777Z,0.95
2022-07-27T14:43:31.151Z,1.08
2022-07-27T14:48:48.540Z,1.10
2022-07-27T14:51:15.217Z,0.88
2022-07-27T14:53:43.036Z,0.90
2022-07-27T14:56:10.775Z,1.00
2022-07-27T14:58:39.900Z,0.70
2022-07-27T15:01:07.759Z,0.70
2022-07-27T15:03:35.881Z,0.80
2022-07-27T15:06:03.879Z,1.00
2022-07-27T15:08:31.714Z,0.90
2022-07-27T15:10:59.691Z,0.80
2022-07-27T15:13:27.483Z,1.17
2022-07-27T15:15:58.100Z,1.00
2022-07-27T15:18:26.052Z,1.30
2022-07-27T15:20:53.854Z,0.75
2022-07-27T15:23:22.319Z,0.63
2022-07-27T15:25:50.145Z,0.80
2022-07-27T15:28:17.964Z,0.68
2022-07-27T15:30:45.839Z,0.90
2022-07-27T15:33:15.067Z,1.10
2022-07-27T15:35:43.092Z,0.90
2022-07-27T15:38:10.848Z,0.93
2022-07-27T15:40:38.880Z,1.05
2022-07-27T15:43:10.625Z,1.92
2022-07-27T15:45:39.469Z,0.70
2022-07-27T15:48:09.372Z,0.80
2022-07-27T15:50:41.039Z,0.70
2022-07-27T15:53:09.136Z,0.77
2022-07-27T15:55:39.467Z,0.82
2022-07-27T15:58:07.954Z,1.10
2022-07-27T16:00:40.548Z,0.80
2022-07-27T16:03:10.013Z,1.25
2022-07-27T16:05:39.665Z,0.85
2022-07-27T16:08:09.763Z,1.00
2022-07-27T16:13:05.991Z,1.05
2022-07-27T16:15:52.256Z,0.90
2022-07-27T16:18:20.155Z,0.70
2022-07-27T16:20:49.354Z,0.75
2022-07-27T16:23:19.112Z,1.05
2022-07-27T16:26:07.464Z,1.08
2022-07-27T16:28:38.801Z,0.90
2022-07-27T16:31:08.102Z,0.80
2022-07-27T16:33:36.099Z,0.95
2022-07-27T16:36:08.352Z,1.08
2022-07-27T16:38:37.702Z,0.90
2022-07-27T16:41:10.708Z,0.85
2022-07-27T16:43:39.630Z,1.02
2022-07-27T16:46:09.997Z,0.93
2022-07-27T16:48:42.628Z,0.90
2022-07-27T16:51:13.694Z,1.20
2022-07-27T16:53:43.737Z,0.80
2022-07-27T16:56:12.590Z,1.23
2022-07-27T16:58:40.985Z,0.80
2022-07-27T17:01:09.631Z,1.08
2022-07-27T17:03:49.785Z,1.10
2022-07-27T17:06:20.877Z,0.80
2022-07-27T17:08:49.131Z,0.80
2022-07-27T17:11:21.547Z,0.80
2022-07-27T17:13:51.176Z,0.88
2022-07-27T17:16:27.136Z,1.13
2022-07-27T17:18:55.154Z,1.00
2022-07-27T17:21:24.418Z,0.90
2022-07-27T17:23:52.350Z,0.60
2022-07-27T17:26:20.148Z,0.95
2022-07-27T17:28:52.069Z,0.88
2022-07-27T17:31:21.141Z,1.00
2022-07-27T17:33:49.906Z,0.80
2022-07-27T17:36:17.736Z,1.60
2022-07-27T17:38:48.533Z,1.10
2022-07-27T17:41:23.811Z,0.93
2022-07-27T17:43:52.813Z,0.82
2022-07-27T17:46:21.071Z,0.70
2022-07-27T17:48:49.007Z,1.13
2022-07-27T17:51:16.898Z,0.98
2022-07-27T17:53:46.578Z,1.20
2022-07-27T17:56:14.332Z,0.98
2022-07-27T17:58:42.911Z,1.00
2022-07-27T18:01:10.769Z,0.90
2022-07-27T18:03:38.591Z,0.90
2022-07-27T18:06:06.943Z,1.00
2022-07-27T18:08:34.923Z,0.85
2022-07-27T18:11:04.577Z,0.80
2022-07-27T18:13:39.504Z,0.80
2022-07-27T18:16:11.483Z,0.95
2022-07-27T18:18:41.275Z,1.10
2022-07-27T18:21:10.573Z,1.02
2022-07-27T18:23:38.776Z,0.83
2022-07-27T18:26:09.914Z,0.80
2022-07-27T18:28:40.063Z,0.68
2022-07-27T18:33:37.912Z,0.90
2022-07-27T18:36:06.463Z,0.73
2022-07-27T18:38:34.430Z,0.82
2022-07-27T18:41:02.905Z,0.80
2022-07-27T18:43:32.167Z,0.75
2022-07-27T18:45:59.991Z,1.10
2022-07-27T18:48:28.805Z,0.90
2022-07-27T18:50:56.943Z,1.15
2022-07-27T18:53:25.009Z,0.90
2022-07-27T18:55:56.185Z,0.98
2022-07-27T18:58:25.802Z,0.93
2022-07-27T19:00:55.640Z,0.90
2022-07-27T19:03:24.604Z,1.02
2022-07-27T19:05:55.716Z,0.75
2022-07-27T19:08:24.145Z,0.70
2022-07-27T19:10:52.545Z,0.95
2022-07-27T19:13:21.165Z,0.80
2022-07-27T19:15:48.999Z,0.70
2022-07-27T19:18:18.263Z,0.70
2022-07-27T19:20:46.143Z,1.75
2022-07-27T19:23:13.905Z,0.70
2022-07-27T19:25:42.045Z,0.80
2022-07-27T19:28:09.826Z,0.70
2022-07-27T19:30:39.283Z,1.00
2022-07-27T19:33:07.144Z,0.70
2022-07-27T19:35:36.306Z,0.98
2022-07-27T19:38:04.175Z,0.70
2022-07-27T19:40:47.482Z,0.73
2022-07-27T19:43:15.894Z,0.73
2022-07-27T19:45:44.340Z,0.70
2022-07-27T19:48:12.427Z,0.70
2022-07-27T19:50:42.318Z,0.65
2022-07-27T19:53:10.076Z,0.73
2022-07-27T19:55:37.918Z,0.70
2022-07-27T19:58:05.715Z,0.85
2022-07-27T20:00:33.536Z,0.77
2022-07-27T20:03:01.408Z,1.52
2022-07-27T20:05:29.539Z,0.73
2022-07-27T20:07:58.786Z,0.98
2022-07-27T20:10:26.968Z,1.00
2022-07-27T20:12:54.740Z,0.70
2022-07-27T20:15:22.775Z,0.88
2022-07-27T20:17:50.941Z,0.80
2022-07-27T20:20:18.995Z,1.10
2022-07-27T20:22:46.771Z,0.95
2022-07-27T20:25:16.179Z,0.73
2022-07-27T20:27:44.216Z,0.80
2022-07-27T20:30:14.519Z,0.90
2022-07-27T20:32:42.488Z,0.73
2022-07-27T20:35:10.414Z,1.00
2022-07-27T20:37:38.720Z,0.73
2022-07-27T20:40:09.626Z,0.85
2022-07-27T20:42:40.288Z,0.80
2022-07-27T20:45:12.739Z,1.05
2022-07-27T20:47:40.709Z,0.70
2022-07-27T20:50:09.713Z,0.73
2022-07-27T20:52:37.810Z,0.80
2022-07-27T20:55:06.728Z,0.80
2022-07-27T20:57:34.754Z,0.73
2022-07-27T21:00:06.514Z,0.60
2022-07-27T21:02:34.577Z,0.90
2022-07-27T21:05:02.699Z,0.70
2022-07-27T21:07:30.494Z,0.90
2022-07-27T21:09:58.263Z,0.88
2022-07-27T21:12:26.029Z,0.85
2022-07-27T21:14:54.221Z,0.80
2022-07-27T21:17:23.479Z,0.95
2022-07-27T21:19:51.240Z,0.75
2022-07-27T21:22:20.567Z,0.80
2022-07-27T21:24:49.557Z,1.30
2022-07-27T21:27:20.811Z,1.88
2022-07-27T21:29:49.354Z,1.10
2022-07-27T21:32:17.415Z,0.88
2022-07-27T21:34:46.543Z,0.77
2022-07-27T21:37:14.372Z,1.05
2022-07-27T21:39:42.208Z,1.00
2022-07-27T21:42:09.954Z,1.02
2022-07-27T21:44:37.693Z,0.80
2022-07-27T21:47:11.395Z,1.00
2022-07-27T21:49:41.048Z,1.10
2022-07-27T21:52:11.179Z,1.00
2022-07-27T21:54:39.205Z,0.90
2022-07-27T21:57:06.983Z,1.00
2022-07-27T21:59:36.212Z,0.90
2022-07-27T22:02:05.008Z,1.70
2022-07-27T22:04:32.954Z,0.90
2022-07-27T22:07:00.849Z,0.70
2022-07-27T22:09:30.208Z,0.77
2022-07-27T22:11:58.059Z,1.30
2022-07-27T22:14:25.910Z,1.10
2022-07-27T22:16:53.936Z,0.88
2022-07-27T22:19:21.863Z,0.80
2022-07-27T22:21:49.818Z,0.70
2022-07-27T22:24:17.769Z,1.17
2022-07-27T22:26:47.226Z,0.82
2022-07-27T22:29:15.035Z,0.80
2022-07-27T22:31:42.904Z,1.30
2022-07-27T22:34:11.021Z,0.80
2022-07-27T22:36:39.232Z,0.75
2022-07-27T22:39:07.310Z,0.77
2022-07-27T22:41:35.148Z,0.60
2022-07-27T22:44:04.304Z,0.75
2022-07-27T22:46:32.162Z,0.77
2022-07-27T22:49:00.230Z,0.90
2022-07-27T22:51:49.688Z,0.70
2022-07-27T22:54:16.296Z,0.60
2022-07-27T22:56:44.512Z,0.80
2022-07-27T22:59:13.691Z,0.82
2022-07-27T23:01:46.836Z,1.15
2022-07-27T23:04:16.726Z,0.80
2022-07-27T23:06:45.198Z,0.90
2022-07-27T23:09:13.341Z,0.52
2022-07-27T23:11:42.102Z,0.52
2022-07-27T23:14:10.011Z,0.80
2022-07-27T23:16:39.573Z,0.90
2022-07-27T23:19:07.472Z,0.90
2022-07-27T23:21:35.522Z,0.70
2022-07-27T23:24:05.517Z,0.68
2022-07-27T23:26:33.599Z,1.00
2022-07-27T23:29:01.882Z,1.27
2022-07-27T23:31:29.751Z,0.70
2022-07-27T23:33:58.935Z,0.73
2022-07-27T23:36:26.711Z,0.85
2022-07-27T23:38:54.500Z,1.00
2022-07-27T23:41:22.539Z,0.90
2022-07-27T23:43:50.356Z,0.95
2022-07-27T23:46:18.252Z,0.93
2022-07-27T23:48:46.246Z,0.85
2022-07-27T23:51:18.708Z,0.80
2022-07-27T23:53:47.588Z,0.90
2022-07-27T23:56:15.911Z,0.95
2022-07-27T23:58:43.747Z,0.80
